sensor_id;sensor_type;location;lat;lon;timestamp;pressure;altitude;pressure_sealevel;temperature;humidity
63204;BME280;49297;43.210;27.914;2023-09-18T00:00:25;101702.69;;;21.60;56.59
63204;BME280;49297;43.210;27.914;2023-09-18T00:02:57;101705.56;;;21.58;56.81
63204;BME280;49297;43.210;27.914;2023-09-18T00:05:23;101707.78;;;21.55;56.63
63204;BME280;49297;43.210;27.914;2023-09-18T00:07:49;101701.75;;;21.53;56.77
63204;BME280;49297;43.210;27.914;2023-09-18T00:10:14;101696.53;;;21.51;56.72
63204;BME280;49297;43.210;27.914;2023-09-18T00:12:40;101699.44;;;21.49;56.29
63204;BME280;49297;43.210;27.914;2023-09-18T00:15:07;101688.19;;;21.46;56.31
63204;BME280;49297;43.210;27.914;2023-09-18T00:17:35;101690.06;;;21.45;56.48
63204;BME280;49297;43.210;27.914;2023-09-18T00:20:02;101692.25;;;21.42;56.17
63204;BME280;49297;43.210;27.914;2023-09-18T00:22:32;101690.78;;;21.39;56.06
63204;BME280;49297;43.210;27.914;2023-09-18T00:24:57;101685.56;;;21.38;56.07
63204;BME280;49297;43.210;27.914;2023-09-18T00:27:23;101681.19;;;21.37;55.77
63204;BME280;49297;43.210;27.914;2023-09-18T00:29:49;101684.06;;;21.35;55.45
63204;BME280;49297;43.210;27.914;2023-09-18T00:32:14;101685.94;;;21.35;55.42
63204;BME280;49297;43.210;27.914;2023-09-18T00:34:41;101692.16;;;21.35;55.34
63204;BME280;49297;43.210;27.914;2023-09-18T00:37:07;101692.31;;;21.34;55.13
63204;BME280;49297;43.210;27.914;2023-09-18T00:39:33;101689.00;;;21.32;55.04
63204;BME280;49297;43.210;27.914;2023-09-18T00:41:59;101686.47;;;21.30;55.05
63204;BME280;49297;43.210;27.914;2023-09-18T00:44:25;101690.84;;;21.31;55.13
63204;BME280;49297;43.210;27.914;2023-09-18T00:46:52;101685.47;;;21.31;54.91
63204;BME280;49297;43.210;27.914;2023-09-18T00:49:20;101680.09;;;21.31;54.85
63204;BME280;49297;43.210;27.914;2023-09-18T00:51:47;101686.28;;;21.32;54.62
63204;BME280;49297;43.210;27.914;2023-09-18T00:54:16;101684.66;;;21.30;54.32
63204;BME280;49297;43.210;27.914;2023-09-18T00:56:44;101690.03;;;21.30;54.26
63204;BME280;49297;43.210;27.914;2023-09-18T00:59:11;101687.16;;;21.32;54.33
63204;BME280;49297;43.210;27.914;2023-09-18T01:01:39;101684.47;;;21.32;54.17
63204;BME280;49297;43.210;27.914;2023-09-18T01:04:06;101677.38;;;21.31;54.16
63204;BME280;49297;43.210;27.914;2023-09-18T01:06:34;101680.44;;;21.28;54.09
63204;BME280;49297;43.210;27.914;2023-09-18T01:08:59;101680.63;;;21.26;54.05
63204;BME280;49297;43.210;27.914;2023-09-18T01:11:36;101671.91;;;21.24;54.16
63204;BME280;49297;43.210;27.914;2023-09-18T01:14:18;101671.06;;;21.24;53.99
63204;BME280;49297;43.210;27.914;2023-09-18T01:16:50;101667.75;;;21.22;54.10
63204;BME280;49297;43.210;27.914;2023-09-18T01:19:42;101666.06;;;21.21;53.86
63204;BME280;49297;43.210;27.914;2023-09-18T01:22:14;101661.53;;;21.21;54.17
63204;BME280;49297;43.210;27.914;2023-09-18T01:24:41;101661.72;;;21.20;53.91
63204;BME280;49297;43.210;27.914;2023-09-18T01:27:11;101666.22;;;21.19;54.01
63204;BME280;49297;43.210;27.914;2023-09-18T01:29:38;101666.22;;;21.19;54.03
63204;BME280;49297;43.210;27.914;2023-09-18T01:32:06;101672.66;;;21.18;53.90
63204;BME280;49297;43.210;27.914;2023-09-18T01:34:37;101663.75;;;21.18;53.92
63204;BME280;49297;43.210;27.914;2023-09-18T01:37:05;101668.28;;;21.17;54.07
63204;BME280;49297;43.210;27.914;2023-09-18T01:39:34;101669.97;;;21.18;54.23
63204;BME280;49297;43.210;27.914;2023-09-18T01:42:01;101668.28;;;21.17;54.24
63204;BME280;49297;43.210;27.914;2023-09-18T01:44:28;101673.66;;;21.17;54.38
63204;BME280;49297;43.210;27.914;2023-09-18T01:46:56;101666.44;;;21.18;54.17
63204;BME280;49297;43.210;27.914;2023-09-18T01:49:30;101672.00;;;21.16;54.01
63204;BME280;49297;43.210;27.914;2023-09-18T01:51:56;101680.09;;;21.16;54.45
63204;BME280;49297;43.210;27.914;2023-09-18T01:54:23;101674.69;;;21.16;54.40
63204;BME280;49297;43.210;27.914;2023-09-18T01:56:50;101677.56;;;21.15;54.53
63204;BME280;49297;43.210;27.914;2023-09-18T01:59:20;101676.75;;;21.14;54.50
63204;BME280;49297;43.210;27.914;2023-09-18T02:01:47;101670.50;;;21.14;54.47
63204;BME280;49297;43.210;27.914;2023-09-18T02:04:14;101674.22;;;21.13;54.58
63204;BME280;49297;43.210;27.914;2023-09-18T02:06:47;101658.44;;;21.09;54.83
63204;BME280;49297;43.210;27.914;2023-09-18T02:09:13;101667.75;;;21.07;54.60
63204;BME280;49297;43.210;27.914;2023-09-18T02:11:40;101664.56;;;21.03;54.71
63204;BME280;49297;43.210;27.914;2023-09-18T02:14:08;101662.88;;;21.02;54.84
63204;BME280;49297;43.210;27.914;2023-09-18T02:16:42;101668.44;;;21.01;55.01
63204;BME280;49297;43.210;27.914;2023-09-18T02:19:14;101672.16;;;21.00;54.76
63204;BME280;49297;43.210;27.914;2023-09-18T02:21:42;101675.22;;;20.97;54.96
63204;BME280;49297;43.210;27.914;2023-09-18T02:24:08;101673.53;;;20.96;54.65
63204;BME280;49297;43.210;27.914;2023-09-18T02:26:35;101672.06;;;20.93;54.73
63204;BME280;49297;43.210;27.914;2023-09-18T02:29:05;101672.25;;;20.91;54.71
63204;BME280;49297;43.210;27.914;2023-09-18T02:31:32;101667.22;;;20.88;54.69
63204;BME280;49297;43.210;27.914;2023-09-18T02:33:57;101677.34;;;20.86;54.89
63204;BME280;49297;43.210;27.914;2023-09-18T02:36:23;101673.16;;;20.84;54.67
63204;BME280;49297;43.210;27.914;2023-09-18T02:38:51;101675.19;;;20.82;55.06
63204;BME280;49297;43.210;27.914;2023-09-18T02:41:16;101670.84;;;20.81;55.05
63204;BME280;49297;43.210;27.914;2023-09-18T02:43:43;101679.91;;;20.80;54.99
63204;BME280;49297;43.210;27.914;2023-09-18T02:46:09;101675.56;;;20.79;54.83
63204;BME280;49297;43.210;27.914;2023-09-18T02:48:37;101682.78;;;20.78;55.11
63204;BME280;49297;43.210;27.914;2023-09-18T02:51:03;101686.34;;;20.79;55.08
63204;BME280;49297;43.210;27.914;2023-09-18T02:53:30;101682.78;;;20.78;55.15
63204;BME280;49297;43.210;27.914;2023-09-18T02:55:58;101680.09;;;20.78;55.25
63204;BME280;49297;43.210;27.914;2023-09-18T02:58:25;101680.09;;;20.78;55.34
63204;BME280;49297;43.210;27.914;2023-09-18T03:00:52;101689.03;;;20.79;55.88
63204;BME280;49297;43.210;27.914;2023-09-18T03:03:19;101685.69;;;20.77;56.74
63204;BME280;49297;43.210;27.914;2023-09-18T03:05:45;101679.44;;;20.76;56.60
63204;BME280;49297;43.210;27.914;2023-09-18T03:08:12;101683.00;;;20.77;56.69
63204;BME280;49297;43.210;27.914;2023-09-18T03:10:39;101684.00;;;20.76;56.74
63204;BME280;49297;43.210;27.914;2023-09-18T03:13:06;101689.38;;;20.76;56.51
63204;BME280;49297;43.210;27.914;2023-09-18T03:15:33;101685.84;;;20.75;56.10
63204;BME280;49297;43.210;27.914;2023-09-18T03:18:01;101680.66;;;20.73;55.94
63204;BME280;49297;43.210;27.914;2023-09-18T03:20:28;101680.47;;;20.75;55.89
63204;BME280;49297;43.210;27.914;2023-09-18T03:22:56;101680.31;;;20.77;55.84
63204;BME280;49297;43.210;27.914;2023-09-18T03:25:23;101681.78;;;20.79;55.70
63204;BME280;49297;43.210;27.914;2023-09-18T03:27:51;101678.91;;;20.81;55.92
63204;BME280;49297;43.210;27.914;2023-09-18T03:30:18;101682.91;;;20.85;55.75
63204;BME280;49297;43.210;27.914;2023-09-18T03:32:44;101674.47;;;20.88;55.85
63204;BME280;49297;43.210;27.914;2023-09-18T03:35:11;101681.34;;;20.90;55.72
63204;BME280;49297;43.210;27.914;2023-09-18T03:37:53;101674.94;;;20.91;56.21
63204;BME280;49297;43.210;27.914;2023-09-18T03:40:21;101672.91;;;20.94;56.31
63204;BME280;49297;43.210;27.914;2023-09-18T03:42:48;101671.69;;;20.96;56.62
63204;BME280;49297;43.210;27.914;2023-09-18T03:45:14;101680.44;;;20.98;57.01
63204;BME280;49297;43.210;27.914;2023-09-18T03:47:42;101682.91;;;21.00;57.64
63204;BME280;49297;43.210;27.914;2023-09-18T03:50:09;101678.41;;;21.00;57.57
63204;BME280;49297;43.210;27.914;2023-09-18T03:52:35;101679.41;;;20.99;57.36
63204;BME280;49297;43.210;27.914;2023-09-18T03:55:01;101672.16;;;21.00;56.82
63204;BME280;49297;43.210;27.914;2023-09-18T03:57:27;101670.78;;;21.04;56.88
63204;BME280;49297;43.210;27.914;2023-09-18T03:59:53;101674.47;;;21.03;56.40
63204;BME280;49297;43.210;27.914;2023-09-18T04:02:19;101677.66;;;21.06;55.48
63204;BME280;49297;43.210;27.914;2023-09-18T04:04:44;101681.84;;;21.09;55.57
63204;BME280;49297;43.210;27.914;2023-09-18T04:07:10;101683.97;;;21.14;55.29
63204;BME280;49297;43.210;27.914;2023-09-18T04:09:37;101696.06;;;21.18;55.57
63204;BME280;49297;43.210;27.914;2023-09-18T04:12:04;101687.13;;;21.17;55.26
63204;BME280;49297;43.210;27.914;2023-09-18T04:14:32;101689.81;;;21.17;55.03
63204;BME280;49297;43.210;27.914;2023-09-18T04:16:59;101686.28;;;21.17;54.99
63204;BME280;49297;43.210;27.914;2023-09-18T04:19:26;101686.47;;;21.15;54.84
63204;BME280;49297;43.210;27.914;2023-09-18T04:21:52;101684.16;;;21.12;55.20
63204;BME280;49297;43.210;27.914;2023-09-18T04:24:18;101694.25;;;21.10;54.87
63204;BME280;49297;43.210;27.914;2023-09-18T04:26:44;101696.50;;;21.06;55.10
63204;BME280;49297;43.210;27.914;2023-09-18T04:29:10;101691.50;;;21.03;55.18
63204;BME280;49297;43.210;27.914;2023-09-18T04:31:36;101697.06;;;21.02;55.30
63204;BME280;49297;43.210;27.914;2023-09-18T04:34:01;101688.13;;;21.01;55.32
63204;BME280;49297;43.210;27.914;2023-09-18T04:36:28;101701.97;;;20.98;55.06
63204;BME280;49297;43.210;27.914;2023-09-18T04:38:54;101703.97;;;20.96;55.27
63204;BME280;49297;43.210;27.914;2023-09-18T04:41:19;101700.63;;;20.94;55.59
63204;BME280;49297;43.210;27.914;2023-09-18T04:43:45;101703.50;;;20.92;55.68
63204;BME280;49297;43.210;27.914;2023-09-18T04:46:11;101702.69;;;20.92;55.53
63204;BME280;49297;43.210;27.914;2023-09-18T04:48:37;101699.16;;;20.91;55.81
63204;BME280;49297;43.210;27.914;2023-09-18T04:51:05;101699.34;;;20.90;55.89
63204;BME280;49297;43.210;27.914;2023-09-18T04:53:31;101704.72;;;20.90;56.26
63204;BME280;49297;43.210;27.914;2023-09-18T04:55:57;101700.00;;;20.92;56.31
63204;BME280;49297;43.210;27.914;2023-09-18T04:58:23;101695.25;;;20.94;56.68
63204;BME280;49297;43.210;27.914;2023-09-18T05:00:56;101702.16;;;20.97;57.06
63204;BME280;49297;43.210;27.914;2023-09-18T05:03:22;101705.97;;;21.02;57.04
63204;BME280;49297;43.210;27.914;2023-09-18T05:05:48;101700.69;;;21.09;57.06
63204;BME280;49297;43.210;27.914;2023-09-18T05:08:16;101703.47;;;21.16;56.89
63204;BME280;49297;43.210;27.914;2023-09-18T05:10:42;101700.22;;;21.20;57.09
63204;BME280;49297;43.210;27.914;2023-09-18T05:13:11;101698.09;;;21.30;57.36
63204;BME280;49297;43.210;27.914;2023-09-18T05:15:37;101702.00;;;21.43;57.15
63204;BME280;49297;43.210;27.914;2023-09-18T05:18:03;101700.94;;;21.52;57.05
63204;BME280;49297;43.210;27.914;2023-09-18T05:20:30;101698.34;;;21.59;57.00
63204;BME280;49297;43.210;27.914;2023-09-18T05:22:57;101695.88;;;21.64;56.98
63204;BME280;49297;43.210;27.914;2023-09-18T05:25:25;101697.19;;;21.68;57.15
63204;BME280;49297;43.210;27.914;2023-09-18T05:27:52;101700.00;;;21.75;57.23
63204;BME280;49297;43.210;27.914;2023-09-18T05:30:25;101695.53;;;21.82;57.09
63204;BME280;49297;43.210;27.914;2023-09-18T05:32:53;101698.28;;;21.89;57.06
63204;BME280;49297;43.210;27.914;2023-09-18T05:35:20;101696.69;;;21.94;56.97
63204;BME280;49297;43.210;27.914;2023-09-18T05:37:46;101701.13;;;22.02;56.74
63204;BME280;49297;43.210;27.914;2023-09-18T05:40:13;101692.91;;;22.10;56.36
63204;BME280;49297;43.210;27.914;2023-09-18T05:42:41;101696.06;;;22.14;56.19
63204;BME280;49297;43.210;27.914;2023-09-18T05:45:10;101697.66;;;22.23;56.24
63204;BME280;49297;43.210;27.914;2023-09-18T05:47:37;101698.41;;;22.32;56.16
63204;BME280;49297;43.210;27.914;2023-09-18T05:50:08;101702.44;;;22.42;55.60
63204;BME280;49297;43.210;27.914;2023-09-18T05:52:34;101691.31;;;22.52;55.16
63204;BME280;49297;43.210;27.914;2023-09-18T05:55:02;101699.94;;;22.62;54.70
63204;BME280;49297;43.210;27.914;2023-09-18T05:57:28;101696.00;;;22.65;53.96
63204;BME280;49297;43.210;27.914;2023-09-18T05:59:55;101703.97;;;22.73;53.59
63204;BME280;49297;43.210;27.914;2023-09-18T06:02:22;101701.13;;;22.81;53.02
63204;BME280;49297;43.210;27.914;2023-09-18T06:04:48;101706.97;;;22.85;52.76
63204;BME280;49297;43.210;27.914;2023-09-18T06:07:14;101700.59;;;22.93;52.51
63204;BME280;49297;43.210;27.914;2023-09-18T06:09:41;101704.19;;;23.00;52.46
63204;BME280;49297;43.210;27.914;2023-09-18T06:12:07;101708.63;;;23.08;52.13
63204;BME280;49297;43.210;27.914;2023-09-18T06:14:35;101709.31;;;23.16;51.83
63204;BME280;49297;43.210;27.914;2023-09-18T06:17:03;101701.06;;;23.25;51.63
63204;BME280;49297;43.210;27.914;2023-09-18T06:19:29;101705.47;;;23.32;51.68
63204;BME280;49297;43.210;27.914;2023-09-18T06:21:55;101711.13;;;23.37;51.20
63204;BME280;49297;43.210;27.914;2023-09-18T06:24:21;101704.72;;;23.45;50.93
63204;BME280;49297;43.210;27.914;2023-09-18T06:26:46;101713.88;;;23.51;50.86
63204;BME280;49297;43.210;27.914;2023-09-18T06:29:13;101712.06;;;23.58;50.30
63204;BME280;49297;43.210;27.914;2023-09-18T06:31:38;101711.06;;;23.66;50.24
63204;BME280;49297;43.210;27.914;2023-09-18T06:34:04;101712.75;;;23.73;49.28
63204;BME280;49297;43.210;27.914;2023-09-18T06:36:30;101713.00;;;23.79;48.93
63204;BME280;49297;43.210;27.914;2023-09-18T06:38:56;101720.13;;;23.86;49.21
63204;BME280;49297;43.210;27.914;2023-09-18T06:41:22;101720.16;;;23.93;48.95
63204;BME280;49297;43.210;27.914;2023-09-18T06:43:49;101728.50;;;23.98;48.79
63204;BME280;49297;43.210;27.914;2023-09-18T06:46:14;101718.53;;;24.05;48.28
63204;BME280;49297;43.210;27.914;2023-09-18T06:48:40;101719.59;;;24.11;48.33
63204;BME280;49297;43.210;27.914;2023-09-18T06:51:15;101711.69;;;24.16;48.00
63204;BME280;49297;43.210;27.914;2023-09-18T06:53:43;101711.72;;;24.23;47.36
63204;BME280;49297;43.210;27.914;2023-09-18T06:56:09;101712.97;;;24.27;47.26
63204;BME280;49297;43.210;27.914;2023-09-18T06:58:35;101719.03;;;24.36;47.24
63204;BME280;49297;43.210;27.914;2023-09-18T07:01:01;101724.88;;;24.46;46.83
63204;BME280;49297;43.210;27.914;2023-09-18T07:03:26;101721.19;;;24.54;46.51
63204;BME280;49297;43.210;27.914;2023-09-18T07:05:52;101718.69;;;24.59;45.80
63204;BME280;49297;43.210;27.914;2023-09-18T07:08:18;101725.75;;;24.60;45.40
63204;BME280;49297;43.210;27.914;2023-09-18T07:10:51;101724.53;;;24.62;45.03
63204;BME280;49297;43.210;27.914;2023-09-18T07:13:17;101719.72;;;24.64;45.09
63204;BME280;49297;43.210;27.914;2023-09-18T07:15:44;101718.47;;;24.67;44.36
63204;BME280;49297;43.210;27.914;2023-09-18T07:18:10;101719.31;;;24.74;44.38
63204;BME280;49297;43.210;27.914;2023-09-18T07:20:45;101720.38;;;24.80;43.54
63204;BME280;49297;43.210;27.914;2023-09-18T07:23:11;101717.88;;;24.78;42.91
63204;BME280;49297;43.210;27.914;2023-09-18T07:25:37;101717.88;;;24.78;43.20
63204;BME280;49297;43.210;27.914;2023-09-18T07:28:05;101721.00;;;24.82;42.69
63204;BME280;49297;43.210;27.914;2023-09-18T07:30:31;101713.28;;;24.85;41.89
63204;BME280;49297;43.210;27.914;2023-09-18T07:32:57;101716.41;;;24.89;42.23
63204;BME280;49297;43.210;27.914;2023-09-18T07:35:25;101718.47;;;24.94;42.34
63204;BME280;49297;43.210;27.914;2023-09-18T07:37:57;101717.66;;;24.93;42.28
63204;BME280;49297;43.210;27.914;2023-09-18T07:40:23;101719.13;;;24.96;42.46
63204;BME280;49297;43.210;27.914;2023-09-18T07:42:49;101716.19;;;25.04;42.49
63204;BME280;49297;43.210;27.914;2023-09-18T07:45:15;101713.88;;;25.14;42.19
63204;BME280;49297;43.210;27.914;2023-09-18T07:47:45;101717.41;;;25.21;41.83
63204;BME280;49297;43.210;27.914;2023-09-18T07:50:12;101728.69;;;25.25;41.30
63204;BME280;49297;43.210;27.914;2023-09-18T07:52:38;101720.75;;;25.23;41.01
63204;BME280;49297;43.210;27.914;2023-09-18T07:55:04;101725.34;;;25.23;41.11
63204;BME280;49297;43.210;27.914;2023-09-18T07:57:30;101727.84;;;25.18;41.50
63204;BME280;49297;43.210;27.914;2023-09-18T07:59:58;101728.25;;;25.15;41.94
63204;BME280;49297;43.210;27.914;2023-09-18T08:02:24;101716.19;;;25.11;42.10
63204;BME280;49297;43.210;27.914;2023-09-18T08:04:50;101729.31;;;25.14;42.19
63204;BME280;49297;43.210;27.914;2023-09-18T08:07:18;101727.44;;;25.21;42.49
63204;BME280;49297;43.210;27.914;2023-09-18T08:09:44;101730.38;;;25.26;42.74
63204;BME280;49297;43.210;27.914;2023-09-18T08:12:12;101736.16;;;25.36;43.00
63204;BME280;49297;43.210;27.914;2023-09-18T08:14:38;101733.47;;;25.36;43.25
63204;BME280;49297;43.210;27.914;2023-09-18T08:17:04;101732.84;;;25.34;44.21
63204;BME280;49297;43.210;27.914;2023-09-18T08:19:30;101733.50;;;25.30;45.14
63204;BME280;49297;43.210;27.914;2023-09-18T08:21:59;101729.53;;;25.25;45.15
63204;BME280;49297;43.210;27.914;2023-09-18T08:24:29;101737.44;;;25.27;45.88
63204;BME280;49297;43.210;27.914;2023-09-18T08:26:55;101732.63;;;25.36;45.68
63204;BME280;49297;43.210;27.914;2023-09-18T08:29:22;101723.47;;;25.37;44.38
63204;BME280;49297;43.210;27.914;2023-09-18T08:31:47;101735.75;;;25.39;43.60
63204;BME280;49297;43.210;27.914;2023-09-18T08:34:13;101727.00;;;25.44;42.43
63204;BME280;49297;43.210;27.914;2023-09-18T08:36:40;101726.13;;;25.50;42.68
63204;BME280;49297;43.210;27.914;2023-09-18T08:39:05;101724.66;;;25.54;43.16
63204;BME280;49297;43.210;27.914;2023-09-18T08:41:32;101721.31;;;25.59;43.96
63204;BME280;49297;43.210;27.914;2023-09-18T08:44:03;101722.34;;;25.64;44.28
63204;BME280;49297;43.210;27.914;2023-09-18T08:46:30;101731.50;;;25.70;44.03
63204;BME280;49297;43.210;27.914;2023-09-18T08:49:00;101734.88;;;25.65;44.48
63204;BME280;49297;43.210;27.914;2023-09-18T08:51:27;101724.84;;;25.59;44.84
63204;BME280;49297;43.210;27.914;2023-09-18T08:53:54;101730.06;;;25.61;44.65
63204;BME280;49297;43.210;27.914;2023-09-18T08:56:21;101728.59;;;25.65;44.53
63204;BME280;49297;43.210;27.914;2023-09-18T08:58:49;101722.13;;;25.66;44.96
63204;BME280;49297;43.210;27.914;2023-09-18T09:01:15;101719.41;;;25.73;45.46
63204;BME280;49297;43.210;27.914;2023-09-18T09:03:41;101711.06;;;25.74;45.71
63204;BME280;49297;43.210;27.914;2023-09-18T09:06:09;101725.25;;;25.70;44.99
63204;BME280;49297;43.210;27.914;2023-09-18T09:08:35;101724.84;;;25.66;45.17
63204;BME280;49297;43.210;27.914;2023-09-18T09:11:03;101729.44;;;25.65;45.05
63204;BME280;49297;43.210;27.914;2023-09-18T09:13:29;101734.00;;;25.72;44.90
63204;BME280;49297;43.210;27.914;2023-09-18T09:15:56;101722.75;;;25.68;45.58
63204;BME280;49297;43.210;27.914;2023-09-18T09:18:24;101724.44;;;25.69;45.94
63204;BME280;49297;43.210;27.914;2023-09-18T09:20:54;101732.97;;;25.66;45.28
63204;BME280;49297;43.210;27.914;2023-09-18T09:23:24;101716.09;;;25.64;44.71
63204;BME280;49297;43.210;27.914;2023-09-18T09:25:50;101730.25;;;25.66;44.87
63204;BME280;49297;43.210;27.914;2023-09-18T09:28:16;101732.56;;;25.69;44.10
63204;BME280;49297;43.210;27.914;2023-09-18T09:31:00;101735.69;;;25.66;44.05
63204;BME280;49297;43.210;27.914;2023-09-18T09:33:30;101732.78;;;25.61;44.16
63204;BME280;49297;43.210;27.914;2023-09-18T09:35:57;101740.31;;;25.59;44.71
63204;BME280;49297;43.210;27.914;2023-09-18T09:38:31;101739.06;;;25.55;44.97
63204;BME280;49297;43.210;27.914;2023-09-18T09:40:58;101739.69;;;25.57;44.83
63204;BME280;49297;43.210;27.914;2023-09-18T09:43:27;101742.13;;;25.65;44.66
63204;BME280;49297;43.210;27.914;2023-09-18T09:46:00;101734.00;;;25.65;43.73
63204;BME280;49297;43.210;27.914;2023-09-18T09:48:27;101734.00;;;25.65;43.29
63204;BME280;49297;43.210;27.914;2023-09-18T09:50:58;101738.81;;;25.70;43.81
63204;BME280;49297;43.210;27.914;2023-09-18T09:53:48;101737.31;;;25.74;45.14
63204;BME280;49297;43.210;27.914;2023-09-18T09:56:16;101734.59;;;25.74;44.91
63204;BME280;49297;43.210;27.914;2023-09-18T09:59:05;101734.19;;;25.77;44.58
63204;BME280;49297;43.210;27.914;2023-09-18T10:01:35;101731.03;;;25.87;44.42
63204;BME280;49297;43.210;27.914;2023-09-18T10:04:05;101733.91;;;25.98;44.01
63204;BME280;49297;43.210;27.914;2023-09-18T10:06:35;101724.72;;;26.06;43.58
63204;BME280;49297;43.210;27.914;2023-09-18T10:09:03;101733.00;;;26.18;43.06
63204;BME280;49297;43.210;27.914;2023-09-18T10:11:34;101738.19;;;26.19;42.01
63204;BME280;49297;43.210;27.914;2023-09-18T10:14:49;101730.47;;;26.23;41.15
63204;BME280;49297;43.210;27.914;2023-09-18T10:16:59;101726.31;;;26.20;41.19
63204;BME280;49297;43.210;27.914;2023-09-18T10:22:38;101730.09;;;26.13;40.26
63204;BME280;49297;43.210;27.914;2023-09-18T10:27:47;101731.38;;;26.10;40.19
63204;BME280;49297;43.210;27.914;2023-09-18T10:30:20;101718.91;;;26.02;40.34
63204;BME280;49297;43.210;27.914;2023-09-18T10:32:51;101721.44;;;25.97;39.75
63204;BME280;49297;43.210;27.914;2023-09-18T10:35:17;101722.66;;;26.01;40.28
63204;BME280;49297;43.210;27.914;2023-09-18T10:37:45;101715.13;;;26.03;39.94
63204;BME280;49297;43.210;27.914;2023-09-18T10:40:12;101717.44;;;26.00;39.98
63204;BME280;49297;43.210;27.914;2023-09-18T10:42:39;101709.28;;;26.00;40.33
63204;BME280;49297;43.210;27.914;2023-09-18T10:45:08;101711.78;;;26.08;40.66
63204;BME280;49297;43.210;27.914;2023-09-18T10:47:42;101706.06;;;26.16;40.05
63204;BME280;49297;43.210;27.914;2023-09-18T10:50:11;101707.75;;;26.17;40.11
63204;BME280;49297;43.210;27.914;2023-09-18T10:52:43;101709.44;;;26.12;40.11
63204;BME280;49297;43.210;27.914;2023-09-18T10:55:13;101698.16;;;26.15;40.46
63204;BME280;49297;43.210;27.914;2023-09-18T10:58:06;101701.44;;;26.24;40.91
63204;BME280;49297;43.210;27.914;2023-09-18T11:00:32;101696.63;;;26.26;41.08
63204;BME280;49297;43.210;27.914;2023-09-18T11:03:22;101692.03;;;26.26;42.13
63204;BME280;49297;43.210;27.914;2023-09-18T11:06:02;101692.91;;;26.20;42.36
63204;BME280;49297;43.210;27.914;2023-09-18T11:08:43;101692.91;;;26.20;42.63
63204;BME280;49297;43.210;27.914;2023-09-18T11:11:12;101699.97;;;26.28;41.45
63204;BME280;49297;43.210;27.914;2023-09-18T11:13:47;101694.94;;;26.31;41.91
63204;BME280;49297;43.210;27.914;2023-09-18T11:18:53;101701.66;;;26.22;41.47
63204;BME280;49297;43.210;27.914;2023-09-18T11:21:27;101701.22;;;26.25;40.64
63204;BME280;49297;43.210;27.914;2023-09-18T11:26:34;101702.03;;;26.64;41.06
63204;BME280;49297;43.210;27.914;2023-09-18T11:29:05;101704.00;;;26.75;41.23
63204;BME280;49297;43.210;27.914;2023-09-18T11:31:48;101692.59;;;26.92;41.65
63204;BME280;49297;43.210;27.914;2023-09-18T11:34:27;101700.81;;;27.29;40.82
63204;BME280;49297;43.210;27.914;2023-09-18T11:37:21;101690.03;;;27.78;39.47
63204;BME280;49297;43.210;27.914;2023-09-18T11:39:47;101697.72;;;28.41;37.96
63204;BME280;49297;43.210;27.914;2023-09-18T11:42:17;101688.09;;;28.93;36.75
63204;BME280;49297;43.210;27.914;2023-09-18T11:44:44;101689.13;;;29.51;35.56
63204;BME280;49297;43.210;27.914;2023-09-18T11:47:15;101689.41;;;30.07;35.34
63204;BME280;49297;43.210;27.914;2023-09-18T11:49:52;101677.03;;;30.45;35.09
63204;BME280;49297;43.210;27.914;2023-09-18T11:52:27;101683.78;;;30.76;35.11
63204;BME280;49297;43.210;27.914;2023-09-18T11:54:57;101677.16;;;31.06;34.58
63204;BME280;49297;43.210;27.914;2023-09-18T11:57:23;101680.03;;;31.38;33.58
63204;BME280;49297;43.210;27.914;2023-09-18T11:59:49;101677.22;;;31.50;33.90
63204;BME280;49297;43.210;27.914;2023-09-18T12:02:29;101678.59;;;31.53;34.18
63204;BME280;49297;43.210;27.914;2023-09-18T12:05:13;101679.34;;;31.70;33.57
63204;BME280;49297;43.210;27.914;2023-09-18T12:07:40;101673.72;;;31.82;32.63
63204;BME280;49297;43.210;27.914;2023-09-18T12:10:10;101684.88;;;31.75;33.15
63204;BME280;49297;43.210;27.914;2023-09-18T12:12:36;101672.16;;;31.64;33.62
63204;BME280;49297;43.210;27.914;2023-09-18T12:15:02;101672.22;;;31.69;33.47
63204;BME280;49297;43.210;27.914;2023-09-18T12:17:29;101677.31;;;31.82;33.45
63204;BME280;49297;43.210;27.914;2023-09-18T12:19:55;101675.53;;;31.71;32.78
63204;BME280;49297;43.210;27.914;2023-09-18T12:22:28;101677.06;;;31.40;33.73
63204;BME280;49297;43.210;27.914;2023-09-18T12:25:14;101679.00;;;31.00;34.07
63204;BME280;49297;43.210;27.914;2023-09-18T12:27:41;101676.59;;;30.70;34.78
63204;BME280;49297;43.210;27.914;2023-09-18T12:30:07;101677.00;;;30.62;35.20
63204;BME280;49297;43.210;27.914;2023-09-18T12:32:38;101675.59;;;30.42;35.10
63204;BME280;49297;43.210;27.914;2023-09-18T12:35:06;101671.88;;;30.03;35.59
63204;BME280;49297;43.210;27.914;2023-09-18T12:37:39;101671.25;;;29.43;36.34
63204;BME280;49297;43.210;27.914;2023-09-18T12:40:28;101670.81;;;28.99;37.21
63204;BME280;49297;43.210;27.914;2023-09-18T12:42:56;101668.06;;;28.63;37.41
63204;BME280;49297;43.210;27.914;2023-09-18T12:45:27;101667.06;;;28.46;37.49
63204;BME280;49297;43.210;27.914;2023-09-18T12:47:57;101670.19;;;28.19;37.66
63204;BME280;49297;43.210;27.914;2023-09-18T12:50:23;101661.88;;;27.84;36.38
63204;BME280;49297;43.210;27.914;2023-09-18T12:52:49;101659.22;;;27.47;38.24
63204;BME280;49297;43.210;27.914;2023-09-18T12:55:22;101656.72;;;27.27;38.54
63204;BME280;49297;43.210;27.914;2023-09-18T12:57:49;101649.44;;;27.02;39.00